KNIP/NIP METAR and TAF weather

Enter ICAO airport designator
Station Type Date Time Source
KNIP METAR 2018/12/10 02:53 UTC NOAA

KNIP 100253Z 27010KT 10SM FEW008 BKN020 OVC040 16/12 A2992 RMK AO2 SLP128 T01560117 53015


Station Type Date Time Source
KNIP Decoded METAR 2018/12/10 02:53 UTC NOAA

JACKSONVILLE NAVAL AIR STN, FL, United States (KNIP) 30-14N 81-40W 8M
Dec 09, 2018 - 09:53 PM EST / 2018.12.10 0253 UTC
Wind: from the W (270 degrees) at 12 MPH (10 KT):0
Visibility: 10 mile(s):0
Sky conditions: overcast
Temperature: 60.1 F (15.6 C)
Dew Point: 53.1 F (11.7 C)
Relative Humidity: 77%
Pressure (altimeter): 29.92 in. Hg (1013 hPa)
Pressure tendency: 0.04 inches (1.5 hPa) higher than three hours ago
ob: KNIP 100253Z 27010KT 10SM FEW008 BKN020 OVC040 16/12 A2992 RMK AO2 SLP128 T01560117 53015
cycle: 3

Station Type Date Time Source
KNIP TAF 2018/12/09 23:06 UTC NOAA

TAF TAF KNIP 0923/1023 24012KT 9999 BKN010 BKN030 OVC050 QNH2981INS
BECMG 1002/1004 31008KT 9999 SCT015 BKN035 OVC050 QNH2986INS
BECMG 1018/1020 30010KT 9999 FEW015 SCT030 BKN060 QNH3005INS T06/1011Z T15/1019Z FN00106


Example: see airport list